createdAt,value
2018-10-19T00:00:17.216Z,14.15
2018-10-19T00:01:17.205Z,14.20
2018-10-19T00:02:17.207Z,14.15
2018-10-19T00:03:17.408Z,14.08
2018-10-19T00:04:17.217Z,14.14
2018-10-19T00:05:17.313Z,14.10
2018-10-19T00:06:17.421Z,14.18
2018-10-19T00:07:17.205Z,14.11
2018-10-19T00:08:17.204Z,14.20
2018-10-19T00:09:17.235Z,14.18
2018-10-19T00:10:17.222Z,14.14
2018-10-19T00:11:17.229Z,14.18
2018-10-19T00:12:17.233Z,14.12
2018-10-19T00:13:17.221Z,14.10
2018-10-19T00:14:17.205Z,14.08
2018-10-19T00:15:17.364Z,14.08
2018-10-19T00:16:17.416Z,14.05
2018-10-19T00:17:17.214Z,14.07
2018-10-19T00:18:17.206Z,14.07
2018-10-19T00:19:17.204Z,14.14
2018-10-19T00:20:17.406Z,14.07
2018-10-19T00:21:17.232Z,14.17
2018-10-19T00:22:17.215Z,14.07
2018-10-19T00:23:17.410Z,14.08
2018-10-19T00:24:17.220Z,14.05
2018-10-19T00:25:17.216Z,14.03
2018-10-19T00:26:17.405Z,14.03
2018-10-19T00:27:17.203Z,14.04
2018-10-19T00:28:17.418Z,14.05
2018-10-19T00:29:17.375Z,14.05
2018-10-19T00:30:17.231Z,14.07
2018-10-19T00:31:17.212Z,14.08
2018-10-19T00:32:17.215Z,14.04
2018-10-19T00:33:17.206Z,14.04
2018-10-19T00:34:17.213Z,14.10
2018-10-19T00:35:17.217Z,14.08
2018-10-19T00:36:17.224Z,14.07
2018-10-19T00:37:17.226Z,14.11
2018-10-19T00:38:17.216Z,14.05
2018-10-19T00:39:17.372Z,14.07
2018-10-19T00:40:17.201Z,14.07
2018-10-19T00:41:17.572Z,14.08
2018-10-19T00:42:17.204Z,14.00
2018-10-19T00:43:17.234Z,14.00
2018-10-19T00:44:17.218Z,14.05
2018-10-19T00:45:17.296Z,14.00
2018-10-19T00:46:17.205Z,13.93
2018-10-19T00:47:17.410Z,13.97
2018-10-19T00:48:17.417Z,13.95
2018-10-19T00:49:17.216Z,13.95
2018-10-19T00:50:17.213Z,13.95
2018-10-19T00:51:17.467Z,13.95
2018-10-19T00:52:17.435Z,13.92
2018-10-19T00:53:17.228Z,13.99
2018-10-19T00:54:17.202Z,13.96
2018-10-19T00:55:17.214Z,13.90
2018-10-19T00:56:17.212Z,13.95
2018-10-19T00:57:17.354Z,13.95
2018-10-19T00:58:17.203Z,13.90
2018-10-19T00:59:17.201Z,13.90
2018-10-19T01:00:17.205Z,13.95
2018-10-19T01:01:17.213Z,13.95
2018-10-19T01:02:17.201Z,13.96
2018-10-19T01:03:17.204Z,13.97
2018-10-19T01:04:17.203Z,14.00
2018-10-19T01:05:17.250Z,13.92
2018-10-19T01:06:17.211Z,13.92
2018-10-19T01:07:17.203Z,13.93
2018-10-19T01:08:17.405Z,13.95
2018-10-19T01:09:17.218Z,13.85
2018-10-19T01:10:17.204Z,13.83
2018-10-19T01:11:17.403Z,13.85
2018-10-19T01:12:17.227Z,13.90
2018-10-19T01:13:17.210Z,13.87
2018-10-19T01:14:17.201Z,13.95
2018-10-19T01:15:17.318Z,13.92
2018-10-19T01:16:17.201Z,13.93
2018-10-19T01:17:17.228Z,13.90
2018-10-19T01:18:17.202Z,13.90
2018-10-19T01:19:17.215Z,13.95
2018-10-19T01:20:17.201Z,14.00
2018-10-19T01:21:17.199Z,13.89
2018-10-19T01:22:17.403Z,13.90
2018-10-19T01:23:17.348Z,13.86
2018-10-19T01:24:17.202Z,13.92
2018-10-19T01:25:17.213Z,13.77
2018-10-19T01:26:17.232Z,13.78
2018-10-19T01:27:17.305Z,13.79
2018-10-19T01:28:17.210Z,13.79
2018-10-19T01:29:17.199Z,13.78
2018-10-19T01:30:17.204Z,13.78
2018-10-19T01:31:17.212Z,13.87
2018-10-19T01:32:17.197Z,13.79
2018-10-19T01:33:17.221Z,13.79
2018-10-19T01:34:17.219Z,13.79
2018-10-19T01:35:17.216Z,13.78
2018-10-19T01:36:17.205Z,13.78
2018-10-19T01:37:17.197Z,13.78
2018-10-19T01:38:17.208Z,13.77
2018-10-19T01:39:17.199Z,13.77
2018-10-19T01:40:17.212Z,13.78
2018-10-19T01:41:17.400Z,13.74
2018-10-19T01:42:17.398Z,13.75
2018-10-19T01:43:17.402Z,13.74
2018-10-19T01:44:17.198Z,13.71
2018-10-19T01:45:17.195Z,13.71
2018-10-19T01:46:17.411Z,13.75
2018-10-19T01:47:17.195Z,13.78
2018-10-19T01:48:17.195Z,13.74
2018-10-19T01:49:17.398Z,13.74
2018-10-19T01:50:17.198Z,13.78
2018-10-19T01:51:17.338Z,13.79
2018-10-19T01:52:17.197Z,13.85
2018-10-19T01:53:17.286Z,13.79
2018-10-19T01:54:17.399Z,13.79
2018-10-19T01:55:17.210Z,13.77
2018-10-19T01:56:17.216Z,13.79
2018-10-19T01:57:17.291Z,13.67
2018-10-19T01:58:17.203Z,13.79
2018-10-19T01:59:17.296Z,13.71
2018-10-19T02:00:17.397Z,13.71
2018-10-19T02:01:17.191Z,13.77
2018-10-19T02:02:17.203Z,13.67
2018-10-19T02:03:17.233Z,13.77
2018-10-19T02:04:17.394Z,13.79
2018-10-19T02:05:17.199Z,13.75
2018-10-19T02:06:17.399Z,13.79
2018-10-19T02:07:17.200Z,13.78
2018-10-19T02:08:17.208Z,13.87
2018-10-19T02:09:17.205Z,13.77
2018-10-19T02:10:17.200Z,13.75
2018-10-19T02:11:17.193Z,13.78
2018-10-19T02:12:17.191Z,13.79
2018-10-19T02:13:17.188Z,13.81
2018-10-19T02:14:17.204Z,13.74
2018-10-19T02:15:17.425Z,13.74
2018-10-19T02:16:17.191Z,13.87
2018-10-19T02:17:17.200Z,13.77
2018-10-19T02:18:17.204Z,13.78
2018-10-19T02:19:17.189Z,13.75
2018-10-19T02:20:17.189Z,13.81
2018-10-19T02:21:17.198Z,13.72
2018-10-19T02:22:17.214Z,13.78
2018-10-19T02:23:17.288Z,13.90
2018-10-19T02:24:17.390Z,13.87
2018-10-19T02:25:17.190Z,13.87
2018-10-19T02:26:17.394Z,13.87
2018-10-19T02:27:17.404Z,13.90
2018-10-19T02:28:17.187Z,13.99
2018-10-19T02:29:17.187Z,13.89
2018-10-19T02:30:17.203Z,13.90
2018-10-19T02:31:17.389Z,13.92
2018-10-19T02:32:17.189Z,13.90
2018-10-19T02:33:17.229Z,13.86
2018-10-19T02:34:17.197Z,13.86
2018-10-19T02:35:17.257Z,13.78
2018-10-19T02:36:17.195Z,13.79
2018-10-19T02:37:17.207Z,13.74
2018-10-19T02:38:17.207Z,13.83
2018-10-19T02:39:17.317Z,13.79
2018-10-19T02:40:17.198Z,13.79
2018-10-19T02:41:17.372Z,13.78
2018-10-19T02:42:17.196Z,13.77
2018-10-19T02:43:17.392Z,13.78
2018-10-19T02:44:17.418Z,13.78
2018-10-19T02:45:17.514Z,13.78
2018-10-19T02:46:17.204Z,13.77
2018-10-19T02:47:17.506Z,13.85
2018-10-19T02:48:17.185Z,13.79
2018-10-19T02:49:17.193Z,13.78
2018-10-19T02:50:17.196Z,13.85
2018-10-19T02:51:17.245Z,13.78
2018-10-19T02:52:17.195Z,13.81
2018-10-19T02:53:17.416Z,13.79
2018-10-19T02:54:17.209Z,13.70
2018-10-19T02:55:17.188Z,13.65
2018-10-19T02:56:17.201Z,13.65
2018-10-19T02:57:17.271Z,13.65
2018-10-19T02:58:17.400Z,13.65
2018-10-19T02:59:17.492Z,13.59
2018-10-19T03:00:17.185Z,13.62
2018-10-19T03:01:17.186Z,13.63
2018-10-19T03:02:17.211Z,13.71
2018-10-19T03:03:17.273Z,13.60
2018-10-19T03:04:17.183Z,13.65
2018-10-19T03:05:17.430Z,13.63
2018-10-19T03:06:17.196Z,13.62
2018-10-19T03:07:17.202Z,13.56
2018-10-19T03:08:17.406Z,13.57
2018-10-19T03:09:17.519Z,13.50
2018-10-19T03:10:17.193Z,13.53
2018-10-19T03:11:17.361Z,13.53
2018-10-19T03:13:17.182Z,13.54
2018-10-19T03:14:17.182Z,13.53
2018-10-19T03:15:17.266Z,13.53
2018-10-19T03:16:17.199Z,13.59
2018-10-19T03:17:17.294Z,13.62
2018-10-19T03:18:17.192Z,13.56
2018-10-19T03:19:17.192Z,13.60
2018-10-19T03:20:17.181Z,13.67
2018-10-19T03:21:17.295Z,13.59
2018-10-19T03:22:17.188Z,13.65
2018-10-19T03:23:17.386Z,13.70
2018-10-19T03:24:17.188Z,13.56
2018-10-19T03:25:17.391Z,13.59
2018-10-19T03:26:17.177Z,13.50
2018-10-19T03:27:17.304Z,13.54
2018-10-19T03:28:17.196Z,13.56
2018-10-19T03:29:17.284Z,13.56
2018-10-19T03:30:17.196Z,13.53
2018-10-19T03:31:17.248Z,13.60
2018-10-19T03:32:17.191Z,13.52
2018-10-19T03:33:17.247Z,13.57
2018-10-19T03:34:17.179Z,13.60
2018-10-19T03:35:17.253Z,13.52
2018-10-19T03:36:17.181Z,13.50
2018-10-19T03:37:17.176Z,13.53
2018-10-19T03:38:17.185Z,13.50
2018-10-19T03:39:17.357Z,13.47
2018-10-19T03:40:17.176Z,13.42
2018-10-19T03:41:17.481Z,13.33
2018-10-19T03:42:17.186Z,13.31
2018-10-19T03:43:17.175Z,13.27
2018-10-19T03:44:17.377Z,13.23
2018-10-19T03:45:17.308Z,13.28
2018-10-19T03:46:17.177Z,13.35
2018-10-19T03:47:17.438Z,13.16
2018-10-19T03:48:17.175Z,13.23
2018-10-19T03:49:17.269Z,13.19
2018-10-19T03:50:17.173Z,13.25
2018-10-19T03:51:17.348Z,13.13
2018-10-19T03:52:17.392Z,13.23
2018-10-19T03:53:17.312Z,13.13
2018-10-19T03:54:17.183Z,13.11
2018-10-19T03:55:17.182Z,13.18
2018-10-19T03:56:17.173Z,13.13
2018-10-19T03:57:17.226Z,13.15
2018-10-19T03:58:17.377Z,12.98
2018-10-19T03:59:17.535Z,13.09
2018-10-19T04:00:17.373Z,13.04
2018-10-19T04:01:17.374Z,13.00
2018-10-19T04:02:17.169Z,12.95
2018-10-19T04:03:17.305Z,13.04
2018-10-19T04:04:17.370Z,13.05
2018-10-19T04:05:17.514Z,13.03
2018-10-19T04:06:17.389Z,12.98
2018-10-19T04:07:17.177Z,13.05
2018-10-19T04:08:17.174Z,13.03
2018-10-19T04:09:17.455Z,13.12
2018-10-19T04:10:17.174Z,13.15
2018-10-19T04:11:17.269Z,13.01
2018-10-19T04:12:17.177Z,13.01
2018-10-19T04:13:17.381Z,13.03
2018-10-19T04:14:17.386Z,12.91
2018-10-19T04:15:17.239Z,13.01
2018-10-19T04:16:17.183Z,13.04
2018-10-19T04:17:17.283Z,13.01
2018-10-19T04:18:17.164Z,13.00
2018-10-19T04:19:17.165Z,12.93
2018-10-19T04:20:17.181Z,12.85
2018-10-19T04:21:17.275Z,12.83
2018-10-19T04:22:17.178Z,12.87
2018-10-19T04:23:17.351Z,12.86
2018-10-19T04:24:17.173Z,12.80
2018-10-19T04:25:17.178Z,12.90
2018-10-19T04:26:17.163Z,12.75
2018-10-19T04:27:17.318Z,12.78
2018-10-19T04:28:17.176Z,12.79
2018-10-19T04:29:17.170Z,12.76
2018-10-19T04:30:17.169Z,12.78
2018-10-19T04:31:17.167Z,12.72
2018-10-19T04:32:17.174Z,12.68
2018-10-19T04:33:17.247Z,12.64
2018-10-19T04:34:17.162Z,12.61
2018-10-19T04:35:17.268Z,12.61
2018-10-19T04:36:17.161Z,12.61
2018-10-19T04:37:17.182Z,12.54
2018-10-19T04:38:17.372Z,12.50
2018-10-19T04:39:17.215Z,12.55
2018-10-19T04:40:17.172Z,12.55
2018-10-19T04:41:17.467Z,12.54
2018-10-19T04:42:17.241Z,12.50
2018-10-19T04:43:17.156Z,12.45
2018-10-19T04:44:17.157Z,12.40
2018-10-19T04:45:17.271Z,12.40
2018-10-19T04:46:17.154Z,12.32
2018-10-19T04:47:17.165Z,12.36
2018-10-19T04:48:17.152Z,12.28
2018-10-19T04:49:17.357Z,12.39
2018-10-19T04:50:17.170Z,12.40
2018-10-19T04:51:17.254Z,12.35
2018-10-19T04:52:17.166Z,12.28
2018-10-19T04:53:17.339Z,12.27
2018-10-19T04:54:17.388Z,12.28
2018-10-19T04:55:17.177Z,12.27
2018-10-19T04:56:17.371Z,12.24
2018-10-19T04:57:17.296Z,12.27
2018-10-19T04:58:17.179Z,12.21
2018-10-19T04:59:17.229Z,12.12
2018-10-19T05:00:17.151Z,12.24
2018-10-19T05:01:17.145Z,12.15
2018-10-19T05:02:17.160Z,12.22
2018-10-19T05:03:17.171Z,12.28
2018-10-19T05:04:17.144Z,12.27
2018-10-19T05:05:17.293Z,12.22
2018-10-19T05:06:17.153Z,12.28
2018-10-19T05:07:17.174Z,12.24
2018-10-19T05:08:17.294Z,12.29
2018-10-19T05:09:17.157Z,12.39
2018-10-19T05:10:17.168Z,12.36
2018-10-19T05:11:17.246Z,12.37
2018-10-19T05:12:17.143Z,12.40
2018-10-19T05:13:17.338Z,12.42
2018-10-19T05:14:17.254Z,12.42
2018-10-19T05:15:17.136Z,12.42
2018-10-19T05:16:17.135Z,12.36
2018-10-19T05:17:17.242Z,12.42
2018-10-19T05:18:17.136Z,12.42
2018-10-19T05:19:17.135Z,12.40
2018-10-19T05:20:17.472Z,12.37
2018-10-19T05:21:17.136Z,12.43
2018-10-19T05:22:17.344Z,12.40
2018-10-19T05:23:17.454Z,12.40
2018-10-19T05:24:17.130Z,12.40
2018-10-19T05:25:17.128Z,12.36
2018-10-19T05:26:17.363Z,12.37
2018-10-19T05:27:17.138Z,12.37
2018-10-19T05:28:17.342Z,12.49
2018-10-19T05:29:17.218Z,12.53
2018-10-19T05:30:17.325Z,12.55
2018-10-19T05:31:17.124Z,12.40
2018-10-19T05:32:17.211Z,12.58
2018-10-19T05:33:17.127Z,12.53
2018-10-19T05:34:17.121Z,12.58
2018-10-19T05:35:17.154Z,12.64
2018-10-19T05:36:17.120Z,12.53
2018-10-19T05:37:17.120Z,12.55
2018-10-19T05:38:17.271Z,12.61
2018-10-19T05:39:17.333Z,12.54
2018-10-19T05:40:17.118Z,12.55
2018-10-19T05:41:17.239Z,12.64
2018-10-19T05:42:17.157Z,12.62
2018-10-19T05:43:17.124Z,12.67
2018-10-19T05:44:17.184Z,12.65
2018-10-19T05:45:17.117Z,12.78
2018-10-19T05:46:17.123Z,12.76
2018-10-19T05:47:17.328Z,12.72
2018-10-19T05:48:17.123Z,12.86
2018-10-19T05:49:17.124Z,12.79
2018-10-19T05:50:17.196Z,12.73
2018-10-19T05:51:17.109Z,12.79
2018-10-19T05:52:17.156Z,12.76
2018-10-19T05:53:17.161Z,12.82
2018-10-19T05:54:17.107Z,12.87
2018-10-19T05:55:17.124Z,12.75
2018-10-19T05:56:17.170Z,12.78
2018-10-19T05:57:17.130Z,12.64
2018-10-19T05:58:17.121Z,12.65
2018-10-19T05:59:17.164Z,12.67
2018-10-19T06:00:17.125Z,12.64
2018-10-19T06:01:17.102Z,12.78
2018-10-19T06:02:17.393Z,12.67
2018-10-19T06:03:17.115Z,12.64
2018-10-19T06:04:17.110Z,12.67
2018-10-19T06:05:17.197Z,12.65
2018-10-19T06:06:17.100Z,12.62
2018-10-19T06:07:17.101Z,12.64
2018-10-19T06:08:17.216Z,12.61
2018-10-19T06:09:17.095Z,12.60
2018-10-19T06:10:17.324Z,12.53
2018-10-19T06:11:17.426Z,12.57
2018-10-19T06:12:17.095Z,12.46
2018-10-19T06:13:17.094Z,12.50
2018-10-19T06:14:17.097Z,12.54
2018-10-19T06:15:17.092Z,12.49
2018-10-19T06:16:17.306Z,12.50
2018-10-19T06:17:17.094Z,12.43
2018-10-19T06:18:17.104Z,12.57
2018-10-19T06:19:17.090Z,12.50
2018-10-19T06:20:17.425Z,12.55
2018-10-19T06:21:17.232Z,12.55
2018-10-19T06:22:17.141Z,12.65
2018-10-19T06:23:17.210Z,12.65
2018-10-19T06:24:17.087Z,12.62
2018-10-19T06:25:17.084Z,12.67
2018-10-19T06:26:17.336Z,12.64
2018-10-19T06:27:17.082Z,12.68
2018-10-19T06:28:17.094Z,12.65
2018-10-19T06:29:17.202Z,12.67
2018-10-19T06:30:17.082Z,12.75
2018-10-19T06:31:17.105Z,12.75
2018-10-19T06:32:17.186Z,12.75
2018-10-19T06:33:17.086Z,12.80
2018-10-19T06:34:17.089Z,12.73
2018-10-19T06:35:17.326Z,12.75
2018-10-19T06:36:17.090Z,12.83
2018-10-19T06:37:17.094Z,12.87
2018-10-19T06:38:17.155Z,12.85
2018-10-19T06:39:17.088Z,12.83
2018-10-19T06:40:17.087Z,12.80
2018-10-19T06:41:17.431Z,12.78
2018-10-19T06:42:17.071Z,12.76
2018-10-19T06:43:17.093Z,12.86
2018-10-19T06:44:17.122Z,12.82
2018-10-19T06:45:17.080Z,12.91
2018-10-19T06:46:17.075Z,12.79
2018-10-19T06:47:17.177Z,12.93
2018-10-19T06:48:17.075Z,12.83
2018-10-19T06:49:17.065Z,12.87
2018-10-19T06:50:17.146Z,12.80
2018-10-19T06:51:17.265Z,12.80
2018-10-19T06:52:17.061Z,12.83
2018-10-19T06:53:17.059Z,12.91
2018-10-19T06:54:17.259Z,12.82
2018-10-19T06:55:17.061Z,12.85
2018-10-19T06:56:17.170Z,12.87
2018-10-19T06:57:17.056Z,12.82
2018-10-19T06:58:17.068Z,12.79
2018-10-19T06:59:17.112Z,12.90
2018-10-19T07:01:17.059Z,12.93
2018-10-19T07:02:17.212Z,12.78
2018-10-19T07:03:17.055Z,12.78
2018-10-19T07:04:17.053Z,12.83
2018-10-19T07:05:17.081Z,12.90
2018-10-19T07:06:17.129Z,12.85
2018-10-19T07:07:17.050Z,12.86
2018-10-19T07:08:17.068Z,12.87
2018-10-19T07:09:17.046Z,12.86
2018-10-19T07:10:17.045Z,12.97
2018-10-19T07:11:17.045Z,12.85
2018-10-19T07:12:17.371Z,12.83
2018-10-19T07:13:17.044Z,12.82
2018-10-19T07:14:17.131Z,12.90
2018-10-19T07:15:17.041Z,12.93
2018-10-19T07:16:17.244Z,12.98
2018-10-19T07:17:17.263Z,12.95
2018-10-19T07:18:17.055Z,13.03
2018-10-19T07:19:17.251Z,13.01
2018-10-19T07:20:17.255Z,13.01
2018-10-19T07:21:17.042Z,13.01
2018-10-19T07:22:17.036Z,13.08
2018-10-19T07:23:17.043Z,13.15
2018-10-19T07:24:17.237Z,13.09
2018-10-19T07:25:17.235Z,13.11
2018-10-19T07:26:17.036Z,13.15
2018-10-19T07:27:17.036Z,13.20
2018-10-19T07:28:17.039Z,13.19
2018-10-19T07:29:17.335Z,13.16
2018-10-19T07:30:17.030Z,13.16
2018-10-19T07:31:17.239Z,13.31
2018-10-19T07:32:17.146Z,13.37
2018-10-19T07:33:17.028Z,13.28
2018-10-19T07:34:17.028Z,13.28
2018-10-19T07:35:17.142Z,13.31
2018-10-19T07:36:17.079Z,13.23
2018-10-19T07:37:17.026Z,13.28
2018-10-19T07:38:17.307Z,13.37
2018-10-19T07:39:17.025Z,13.38
2018-10-19T07:40:17.028Z,13.38
2018-10-19T07:41:17.107Z,13.33
2018-10-19T07:42:17.292Z,13.49
2018-10-19T07:43:17.022Z,13.42
2018-10-19T07:44:17.021Z,13.56
2018-10-19T07:45:17.022Z,13.49
2018-10-19T07:46:17.020Z,13.47
2018-10-19T07:47:17.340Z,13.47
2018-10-19T07:48:17.073Z,13.42
2018-10-19T07:49:17.020Z,13.38
2018-10-19T07:50:17.042Z,13.31
2018-10-19T07:51:17.018Z,13.47
2018-10-19T07:52:17.028Z,13.42
2018-10-19T07:53:17.014Z,13.46
2018-10-19T07:54:17.016Z,13.37
2018-10-19T07:55:17.013Z,13.44
2018-10-19T07:56:17.050Z,13.53
2018-10-19T07:57:17.215Z,13.50
2018-10-19T07:58:17.227Z,13.56
2018-10-19T07:59:17.013Z,13.81
2018-10-19T08:00:17.103Z,13.83
2018-10-19T08:01:17.354Z,13.87
2018-10-19T08:02:17.213Z,13.86
2018-10-19T08:03:17.012Z,13.89
2018-10-19T08:04:17.210Z,13.79
2018-10-19T08:05:17.072Z,13.75
2018-10-19T08:06:17.006Z,13.63
2018-10-19T08:07:17.009Z,13.62
2018-10-19T08:08:17.006Z,13.62
2018-10-19T08:09:17.004Z,13.67
2018-10-19T08:10:17.007Z,13.68
2018-10-19T08:11:17.132Z,13.70
2018-10-19T08:12:17.014Z,13.79
2018-10-19T08:13:17.058Z,13.79
2018-10-19T08:14:17.291Z,13.81
2018-10-19T08:15:17.009Z,13.79
2018-10-19T08:16:17.015Z,13.90
2018-10-19T08:17:17.006Z,13.93
2018-10-19T08:18:17.003Z,13.90
2018-10-19T08:19:17.003Z,13.90
2018-10-19T08:20:17.120Z,13.93
2018-10-19T08:21:17.064Z,13.87
2018-10-19T08:22:17.021Z,13.97
2018-10-19T08:23:17.004Z,13.97
2018-10-19T08:24:17.027Z,13.97
2018-10-19T08:25:17.000Z,13.95
2018-10-19T08:26:17.351Z,13.95
2018-10-19T08:27:17.022Z,13.95
2018-10-19T08:28:17.003Z,13.97
2018-10-19T08:29:17.216Z,13.97
2018-10-19T08:30:16.999Z,13.93
2018-10-19T08:31:17.008Z,14.07
2018-10-19T08:32:17.000Z,13.97
2018-10-19T08:33:16.996Z,13.92
2018-10-19T08:34:17.197Z,13.90
2018-10-19T08:35:17.228Z,13.97
2018-10-19T08:36:17.200Z,13.96
2018-10-19T08:37:17.250Z,13.96
2018-10-19T08:38:17.010Z,14.00
2018-10-19T08:39:16.997Z,14.07
2018-10-19T08:40:16.994Z,14.07
2018-10-19T08:41:17.112Z,14.04
2018-10-19T08:42:16.994Z,14.12
2018-10-19T08:43:17.262Z,14.20
2018-10-19T08:44:17.005Z,14.14
2018-10-19T08:45:17.076Z,14.14
2018-10-19T08:46:17.194Z,14.12
2018-10-19T08:47:17.012Z,14.11
2018-10-19T08:48:17.203Z,14.18
2018-10-19T08:49:17.064Z,14.12
2018-10-19T08:50:17.019Z,14.15
2018-10-19T08:51:17.278Z,14.12
2018-10-19T08:52:17.001Z,14.18
2018-10-19T08:53:17.176Z,14.17
2018-10-19T08:54:17.026Z,14.22
2018-10-19T08:55:17.015Z,14.25
2018-10-19T08:56:17.191Z,14.26
2018-10-19T08:57:17.044Z,14.35
2018-10-19T08:58:17.023Z,14.33
2018-10-19T08:59:17.068Z,14.33
2018-10-19T09:00:17.090Z,14.47
2018-10-19T09:01:16.992Z,14.44
2018-10-19T09:02:17.004Z,14.40
2018-10-19T09:03:17.201Z,14.43
2018-10-19T09:04:16.991Z,14.45
2018-10-19T09:05:17.298Z,14.41
2018-10-19T09:06:17.047Z,14.33
2018-10-19T09:07:17.190Z,14.40
2018-10-19T09:08:16.988Z,14.43
2018-10-19T09:09:17.044Z,14.41
2018-10-19T09:10:17.010Z,14.44
2018-10-19T09:11:16.998Z,14.44
2018-10-19T09:12:17.003Z,14.43
2018-10-19T09:13:16.992Z,14.43
2018-10-19T09:14:16.987Z,14.43
2018-10-19T09:15:16.998Z,14.44
2018-10-19T09:16:17.187Z,14.43
2018-10-19T09:17:17.070Z,14.37
2018-10-19T09:18:17.235Z,14.45
2018-10-19T09:19:17.194Z,14.48
2018-10-19T09:20:16.998Z,14.55
2018-10-19T09:21:16.983Z,14.50
2018-10-19T09:22:16.994Z,14.51
2018-10-19T09:23:17.185Z,14.51
2018-10-19T09:24:16.997Z,14.47
2018-10-19T09:25:16.989Z,14.48
2018-10-19T09:26:16.986Z,14.53
2018-10-19T09:27:17.033Z,14.50
2018-10-19T09:28:17.183Z,14.53
2018-10-19T09:29:17.038Z,14.63
2018-10-19T09:30:16.983Z,14.54
2018-10-19T09:31:16.994Z,14.53
2018-10-19T09:32:16.981Z,14.51
2018-10-19T09:33:17.208Z,14.55
2018-10-19T09:34:16.983Z,14.51
2018-10-19T09:35:17.101Z,14.47
2018-10-19T09:36:17.101Z,14.43
2018-10-19T09:37:16.979Z,14.44
2018-10-19T09:38:17.189Z,14.47
2018-10-19T09:39:17.080Z,14.51
2018-10-19T09:40:17.291Z,14.45
2018-10-19T09:41:17.002Z,14.55
2018-10-19T09:42:16.977Z,14.53
2018-10-19T09:43:16.984Z,14.48
2018-10-19T09:44:16.977Z,14.54
2018-10-19T09:45:16.978Z,14.68
2018-10-19T09:46:16.978Z,14.70
2018-10-19T09:47:17.316Z,14.77
2018-10-19T09:48:16.977Z,14.70
2018-10-19T09:49:16.993Z,14.72
2018-10-19T09:50:17.177Z,14.78
2018-10-19T09:51:17.112Z,14.81
2018-10-19T09:52:16.994Z,14.77
2018-10-19T09:53:16.992Z,14.79
2018-10-19T09:54:16.986Z,14.79
2018-10-19T09:55:16.999Z,14.72
2018-10-19T09:56:17.241Z,14.86
2018-10-19T09:57:16.974Z,14.84
2018-10-19T09:58:16.975Z,14.99
2018-10-19T09:59:17.339Z,15.06
2018-10-19T10:00:16.988Z,15.06
2018-10-19T10:01:17.067Z,15.14
2018-10-19T10:02:16.972Z,15.07
2018-10-19T10:03:17.243Z,15.17
2018-10-19T10:04:16.977Z,15.04
2018-10-19T10:05:17.041Z,15.04
2018-10-19T10:06:16.984Z,15.11
2018-10-19T10:07:17.032Z,15.03
2018-10-19T10:08:16.975Z,15.09
2018-10-19T10:09:16.973Z,14.99
2018-10-19T10:10:16.973Z,14.92
2018-10-19T10:11:16.982Z,14.97
2018-10-19T10:12:16.971Z,15.03
2018-10-19T10:13:16.974Z,15.02
2018-10-19T10:14:16.972Z,14.99
2018-10-19T10:15:17.203Z,14.99
2018-10-19T10:16:16.969Z,15.11
2018-10-19T10:17:16.971Z,15.22
2018-10-19T10:18:16.983Z,15.24
2018-10-19T10:19:17.191Z,15.39
2018-10-19T10:20:16.970Z,15.43
2018-10-19T10:21:16.971Z,15.49
2018-10-19T10:22:17.284Z,15.49
2018-10-19T10:23:16.982Z,15.47
2018-10-19T10:24:17.186Z,15.49
2018-10-19T10:25:17.056Z,15.57
2018-10-19T10:26:16.980Z,15.68
2018-10-19T10:27:16.985Z,15.65
2018-10-19T10:28:17.060Z,15.62
2018-10-19T10:29:16.980Z,15.68
2018-10-19T10:30:16.998Z,15.68
2018-10-19T10:31:16.989Z,15.64
2018-10-19T10:32:17.024Z,15.65
2018-10-19T10:33:16.986Z,15.65
2018-10-19T10:34:17.333Z,15.68
2018-10-19T10:35:16.992Z,15.70
2018-10-19T10:36:16.982Z,15.72
2018-10-19T10:37:16.986Z,15.67
2018-10-19T10:38:17.176Z,15.65
2018-10-19T10:39:17.050Z,15.64
2018-10-19T10:40:17.058Z,15.64
2018-10-19T10:41:16.988Z,15.61
2018-10-19T10:42:17.185Z,15.67
2018-10-19T10:43:16.973Z,15.75
2018-10-19T10:44:17.187Z,15.67
2018-10-19T10:45:16.984Z,15.68
2018-10-19T10:46:17.107Z,15.62
2018-10-19T10:47:16.975Z,15.65
2018-10-19T10:48:16.994Z,15.62
2018-10-19T10:49:17.058Z,15.70
2018-10-19T10:50:16.987Z,15.62
2018-10-19T10:51:16.977Z,15.67
2018-10-19T10:52:17.000Z,15.68
2018-10-19T10:53:16.996Z,15.61
2018-10-19T10:54:16.994Z,15.67
2018-10-19T10:55:17.219Z,15.67
2018-10-19T10:56:16.992Z,15.62
2018-10-19T10:57:16.977Z,15.58
2018-10-19T10:58:17.266Z,15.64
2018-10-19T10:59:16.989Z,15.64
2018-10-19T11:00:17.199Z,15.47
2018-10-19T11:01:16.993Z,15.58
2018-10-19T11:02:17.203Z,15.55
2018-10-19T11:03:16.983Z,15.57
2018-10-19T11:04:17.092Z,15.54
2018-10-19T11:05:16.983Z,15.64
2018-10-19T11:06:17.000Z,15.67
2018-10-19T11:07:17.094Z,15.59
2018-10-19T11:08:17.000Z,15.59
2018-10-19T11:09:16.983Z,15.64
2018-10-19T11:10:17.295Z,15.65
2018-10-19T11:11:17.186Z,15.62
2018-10-19T11:12:16.997Z,15.65
2018-10-19T11:13:17.185Z,15.61
2018-10-19T11:14:17.197Z,15.65
2018-10-19T11:15:16.996Z,15.76
2018-10-19T11:16:16.986Z,15.72
2018-10-19T11:17:16.987Z,15.75
2018-10-19T11:18:16.985Z,15.76
2018-10-19T11:19:17.143Z,15.77
2018-10-19T11:20:16.990Z,15.72
2018-10-19T11:21:17.001Z,15.72
2018-10-19T11:22:17.293Z,15.72
2018-10-19T11:23:17.016Z,15.79
2018-10-19T11:24:17.004Z,15.79
2018-10-19T11:25:17.011Z,15.73
2018-10-19T11:26:16.995Z,15.84
2018-10-19T11:27:17.205Z,15.73
2018-10-19T11:28:16.994Z,15.91
2018-10-19T11:29:17.015Z,15.86
2018-10-19T11:30:16.998Z,15.88
2018-10-19T11:31:17.031Z,15.88
2018-10-19T11:32:16.995Z,15.86
2018-10-19T11:33:17.196Z,15.86
2018-10-19T11:34:17.232Z,15.86
2018-10-19T11:35:16.997Z,15.90
2018-10-19T11:36:16.998Z,15.92
2018-10-19T11:37:17.209Z,15.95
2018-10-19T11:38:17.013Z,15.83
2018-10-19T11:39:17.000Z,15.95
2018-10-19T11:40:17.012Z,15.83
2018-10-19T11:41:17.000Z,15.77
2018-10-19T11:42:17.202Z,15.82
2018-10-19T11:43:17.090Z,15.88
2018-10-19T11:44:17.013Z,15.76
2018-10-19T11:45:17.001Z,15.82
2018-10-19T11:46:17.085Z,15.73
2018-10-19T11:47:17.005Z,15.86
2018-10-19T11:48:17.006Z,15.83
2018-10-19T11:49:17.034Z,15.88
2018-10-19T11:50:17.205Z,15.92
2018-10-19T11:51:17.211Z,15.94
2018-10-19T11:52:17.003Z,15.84
2018-10-19T11:53:17.206Z,15.94
2018-10-19T11:54:17.016Z,15.94
2018-10-19T11:55:17.005Z,15.88
2018-10-19T11:56:17.010Z,15.88
2018-10-19T11:57:17.087Z,15.92
2018-10-19T11:58:17.108Z,16.00
2018-10-19T11:59:17.011Z,16.01
2018-10-19T12:00:17.222Z,15.90
2018-10-19T12:01:17.013Z,16.00
2018-10-19T12:02:17.010Z,15.98
2018-10-19T12:03:17.230Z,15.97
2018-10-19T12:04:17.317Z,15.94
2018-10-19T12:05:17.213Z,15.94
2018-10-19T12:06:17.023Z,15.95
2018-10-19T12:07:17.023Z,15.94
2018-10-19T12:08:17.021Z,16.00
2018-10-19T12:09:17.023Z,15.98
2018-10-19T12:10:17.076Z,15.98
2018-10-19T12:11:17.016Z,16.00
2018-10-19T12:12:17.021Z,16.02
2018-10-19T12:13:17.228Z,16.01
2018-10-19T12:14:17.026Z,16.00
2018-10-19T12:15:17.121Z,16.04
2018-10-19T12:16:17.135Z,16.15
2018-10-19T12:17:17.220Z,15.98
2018-10-19T12:18:17.221Z,16.04
2018-10-19T12:19:17.020Z,16.16
2018-10-19T12:20:17.039Z,16.05
2018-10-19T12:21:17.297Z,16.16
2018-10-19T12:22:17.032Z,16.13
2018-10-19T12:23:17.022Z,16.15
2018-10-19T12:24:17.323Z,16.26
2018-10-19T12:25:17.022Z,16.17
2018-10-19T12:26:17.039Z,16.31
2018-10-19T12:27:17.036Z,16.16
2018-10-19T12:28:17.029Z,16.21
2018-10-19T12:29:17.028Z,16.21
2018-10-19T12:30:17.026Z,16.26
2018-10-19T12:31:17.156Z,16.20
2018-10-19T12:32:17.029Z,16.23
2018-10-19T12:33:17.078Z,16.24
2018-10-19T12:34:17.028Z,16.29
2018-10-19T12:35:17.057Z,16.31
2018-10-19T12:36:17.247Z,16.23
2018-10-19T12:37:17.380Z,16.20
2018-10-19T12:38:17.033Z,16.33
2018-10-19T12:39:17.124Z,16.32
2018-10-19T12:40:17.247Z,16.31
2018-10-19T12:41:17.322Z,16.33
2018-10-19T12:42:17.034Z,16.17
2018-10-19T12:43:17.050Z,16.20
2018-10-19T12:44:17.035Z,16.31
2018-10-19T12:45:17.302Z,16.23
2018-10-19T12:46:17.043Z,16.33
2018-10-19T12:47:17.061Z,16.31
2018-10-19T12:48:17.037Z,16.21
2018-10-19T12:49:17.125Z,16.33
2018-10-19T12:50:17.048Z,16.35
2018-10-19T12:51:17.037Z,16.32
2018-10-19T12:52:17.037Z,16.29
2018-10-19T12:53:17.249Z,16.35
2018-10-19T12:54:17.080Z,16.38